Time,TemperatureF,DewpointF,PressureIn,WindDirection,WindDirectionDegrees,WindSpeedMPH,WindSpeedGustMPH,Humidity,HourlyPrecipIn,Conditions,Clouds,dailyrainin,SoftwareType,DateUTC
2013-07-13 00:03:00,66.7,60.8,30.05,NNE,18,0.0,2.0,81,0.00,,,0.00,meteobridge,2013-07-13 04:03:00,
2013-07-13 00:08:00,66.6,60.6,30.05,NNE,20,0.9,4.0,81,0.00,,,0.00,meteobridge,2013-07-13 04:08:00,
2013-07-13 00:13:00,66.6,60.6,30.05,NNE,25,2.0,2.9,81,0.00,,,0.00,meteobridge,2013-07-13 04:13:00,
2013-07-13 00:18:00,66.4,60.8,30.05,NNE,25,4.9,4.9,82,0.00,,,0.00,meteobridge,2013-07-13 04:18:00,
2013-07-13 00:23:00,66.0,60.4,30.05,NNE,31,2.0,2.0,82,0.00,,,0.00,meteobridge,2013-07-13 04:23:00,
2013-07-13 00:29:00,66.0,60.4,30.05,NNE,16,0.0,6.0,82,0.00,,,0.00,meteobridge,2013-07-13 04:29:00,
2013-07-13 00:34:00,65.8,60.6,30.05,NE,44,0.0,0.0,83,0.00,,,0.00,meteobridge,2013-07-13 04:34:00,
2013-07-13 00:39:00,65.7,60.4,30.05,NE,44,0.9,2.0,83,0.00,,,0.00,meteobridge,2013-07-13 04:39:00,
2013-07-13 00:44:00,65.7,60.6,30.04,NE,44,2.0,2.9,84,0.00,,,0.00,meteobridge,2013-07-13 04:44:00,
2013-07-13 00:49:00,65.3,60.3,30.04,NE,44,0.0,0.0,84,0.00,,,0.00,meteobridge,2013-07-13 04:49:00,
2013-07-13 00:54:00,65.1,60.1,30.04,NE,44,2.0,2.0,84,0.00,,,0.00,meteobridge,2013-07-13 04:54:00,
2013-07-13 00:59:00,65.1,60.1,30.04,NE,44,0.0,2.0,84,0.00,,,0.00,meteobridge,2013-07-13 04:59:00,
2013-07-13 01:05:00,64.9,59.9,30.04,NE,44,0.0,0.9,84,0.00,,,0.00,meteobridge,2013-07-13 05:05:00,
2013-07-13 01:10:00,64.9,59.9,30.04,NE,34,2.9,4.9,84,0.00,,,0.00,meteobridge,2013-07-13 05:10:00,
2013-07-13 01:15:00,64.8,60.1,30.03,NE,34,0.0,2.9,85,0.00,,,0.00,meteobridge,2013-07-13 05:15:00,
2013-07-13 01:20:00,64.8,60.1,30.03,NE,34,0.0,0.9,85,0.00,,,0.00,meteobridge,2013-07-13 05:20:00,
2013-07-13 01:25:00,64.8,60.1,30.03,NE,34,0.9,2.0,85,0.00,,,0.00,meteobridge,2013-07-13 05:25:00,
2013-07-13 01:30:00,64.6,59.9,30.03,NE,44,2.0,2.9,85,0.00,,,0.00,meteobridge,2013-07-13 05:30:00,
2013-07-13 01:36:00,64.6,60.3,30.03,NE,44,0.0,2.0,86,0.00,,,0.00,meteobridge,2013-07-13 05:36:00,
2013-07-13 01:41:00,64.2,59.9,30.03,NE,42,0.0,6.0,86,0.00,,,0.00,meteobridge,2013-07-13 05:41:00,
2013-07-13 01:46:00,64.2,59.9,30.03,NE,42,0.9,0.9,86,0.00,,,0.00,meteobridge,2013-07-13 05:46:00,
2013-07-13 01:51:00,64.0,60.1,30.03,NE,38,0.0,0.0,87,0.00,,,0.00,meteobridge,2013-07-13 05:51:00,
2013-07-13 01:56:00,63.9,59.9,30.03,NE,38,0.0,0.0,87,0.00,,,0.00,meteobridge,2013-07-13 05:56:00,
2013-07-13 02:01:00,63.9,59.9,30.03,NE,38,0.9,2.0,87,0.00,,,0.00,meteobridge,2013-07-13 06:01:00,
2013-07-13 02:06:00,63.9,59.9,30.03,NE,38,0.9,2.0,87,0.00,,,0.00,meteobridge,2013-07-13 06:06:00,
2013-07-13 02:11:00,63.9,59.9,30.03,NNE,25,2.9,4.9,87,0.00,,,0.00,meteobridge,2013-07-13 06:11:00,
2013-07-13 02:16:00,63.9,59.9,30.02,NNE,25,0.0,0.0,87,0.00,,,0.00,meteobridge,2013-07-13 06:16:00,
2013-07-13 02:22:00,63.7,59.7,30.02,NNE,25,0.0,0.0,87,0.00,,,0.00,meteobridge,2013-07-13 06:22:00,
2013-07-13 02:27:00,63.7,59.7,30.02,NNE,25,0.9,0.9,87,0.00,,,0.00,meteobridge,2013-07-13 06:27:00,
2013-07-13 02:32:00,63.7,59.7,30.02,NNE,25,0.9,2.0,87,0.00,,,0.00,meteobridge,2013-07-13 06:32:00,
2013-07-13 02:37:00,63.9,59.5,30.02,NNE,25,0.9,2.0,86,0.00,,,0.00,meteobridge,2013-07-13 06:37:00,
2013-07-13 02:42:00,63.9,59.5,30.02,NNE,25,0.0,0.0,86,0.00,,,0.00,meteobridge,2013-07-13 06:42:00,
2013-07-13 02:47:00,63.7,59.4,30.03,NNE,25,0.9,2.9,86,0.00,,,0.00,meteobridge,2013-07-13 06:47:00,
2013-07-13 02:52:00,63.5,59.5,30.03,NNE,28,0.0,2.9,87,0.00,,,0.00,meteobridge,2013-07-13 06:52:00,
2013-07-13 02:57:00,63.3,59.4,30.03,NNE,28,0.0,0.0,87,0.00,,,0.00,meteobridge,2013-07-13 06:57:00,
2013-07-13 03:02:00,63.3,59.4,30.02,NNE,28,0.0,0.0,87,0.00,,,0.00,meteobridge,2013-07-13 07:02:00,
2013-07-13 03:08:00,63.1,59.2,30.02,NNE,28,0.0,0.0,87,0.00,,,0.00,meteobridge,2013-07-13 07:08:00,
2013-07-13 03:13:00,63.1,59.2,30.02,NNE,28,0.0,2.0,87,0.00,,,0.00,meteobridge,2013-07-13 07:13:00,
2013-07-13 03:18:00,63.1,59.5,30.02,NNE,28,0.0,0.0,88,0.00,,,0.00,meteobridge,2013-07-13 07:18:00,
2013-07-13 03:23:00,63.1,59.5,30.02,NNE,28,0.0,0.0,88,0.00,,,0.00,meteobridge,2013-07-13 07:23:00,
2013-07-13 03:28:00,63.1,59.5,30.02,NNE,28,0.0,0.0,88,0.00,,,0.00,meteobridge,2013-07-13 07:28:00,
2013-07-13 03:33:00,63.0,59.4,30.02,NNE,28,0.0,0.0,88,0.00,,,0.00,meteobridge,2013-07-13 07:33:00,
2013-07-13 03:38:00,62.8,59.2,30.02,NNE,28,0.0,0.0,88,0.00,,,0.00,meteobridge,2013-07-13 07:38:00,
2013-07-13 03:44:00,62.4,59.2,30.02,NNE,28,0.0,0.0,89,0.00,,,0.00,meteobridge,2013-07-13 07:44:00,
2013-07-13 03:49:00,62.2,59.0,30.03,NNE,28,0.0,0.0,89,0.00,,,0.00,meteobridge,2013-07-13 07:49:00,
2013-07-13 03:54:00,62.1,59.2,30.03,NNE,28,0.0,0.0,90,0.00,,,0.00,meteobridge,2013-07-13 07:54:00,
2013-07-13 03:59:00,61.9,59.2,30.03,NNE,28,0.0,0.0,91,0.00,,,0.00,meteobridge,2013-07-13 07:59:00,
2013-07-13 04:04:00,61.9,59.2,30.03,NNE,28,0.0,0.0,91,0.00,,,0.00,meteobridge,2013-07-13 08:04:00,
2013-07-13 04:09:00,61.9,59.2,30.03,NNE,28,0.0,0.0,91,0.00,,,0.00,meteobridge,2013-07-13 08:09:00,
2013-07-13 04:14:00,61.5,58.8,30.03,NNE,28,0.0,0.0,91,0.00,,,0.00,meteobridge,2013-07-13 08:14:00,
2013-07-13 04:20:00,61.5,59.2,30.03,NNE,28,0.0,0.0,92,0.00,,,0.00,meteobridge,2013-07-13 08:20:00,
2013-07-13 04:25:00,61.3,59.0,30.03,NNE,28,0.0,0.0,92,0.00,,,0.00,meteobridge,2013-07-13 08:25:00,
2013-07-13 04:30:00,61.2,58.8,30.03,NNE,28,0.0,0.0,92,0.00,,,0.00,meteobridge,2013-07-13 08:30:00,
2013-07-13 04:35:00,61.2,59.2,30.03,NNE,28,0.0,0.0,93,0.00,,,0.00,meteobridge,2013-07-13 08:35:00,
2013-07-13 04:40:00,61.2,59.2,30.03,NNE,28,0.0,0.0,93,0.00,,,0.00,meteobridge,2013-07-13 08:40:00,
2013-07-13 04:45:00,61.2,59.2,30.03,NNE,28,0.0,0.0,93,0.00,,,0.00,meteobridge,2013-07-13 08:45:00,
2013-07-13 04:50:00,61.0,59.0,30.03,NNE,28,0.0,0.0,93,0.00,,,0.00,meteobridge,2013-07-13 08:50:00,
2013-07-13 04:55:00,61.0,59.2,30.03,NNE,28,0.0,0.0,94,0.00,,,0.00,meteobridge,2013-07-13 08:55:00,
2013-07-13 05:00:00,61.0,59.2,30.03,NNE,28,0.0,0.0,94,0.00,,,0.00,meteobridge,2013-07-13 09:00:00,
2013-07-13 05:10:00,61.0,59.2,30.03,NNE,28,0.0,0.0,94,0.00,,,0.00,meteobridge,2013-07-13 09:10:00,
2013-07-13 05:15:00,61.2,59.7,30.03,NNE,28,0.0,0.0,95,0.00,,,0.00,meteobridge,2013-07-13 09:15:00,
2013-07-13 05:21:00,61.5,60.1,30.03,NNE,28,0.0,0.9,95,0.00,,,0.00,meteobridge,2013-07-13 09:21:00,
2013-07-13 05:26:00,61.5,60.1,30.03,NNE,28,0.0,0.0,95,0.00,,,0.00,meteobridge,2013-07-13 09:26:00,
2013-07-13 05:31:00,61.5,60.1,30.03,NNE,28,0.0,0.0,95,0.00,,,0.00,meteobridge,2013-07-13 09:31:00,
2013-07-13 05:36:00,61.5,60.1,30.03,ENE,61,0.0,0.0,95,0.00,,,0.00,meteobridge,2013-07-13 09:36:00,
2013-07-13 05:41:00,61.9,60.4,30.03,ENE,61,0.9,2.9,95,0.00,,,0.00,meteobridge,2013-07-13 09:41:00,
2013-07-13 05:46:00,61.9,60.4,30.03,ENE,61,0.9,0.9,95,0.00,,,0.00,meteobridge,2013-07-13 09:46:00,
2013-07-13 05:51:00,61.9,60.1,30.03,ENE,72,0.0,0.0,94,0.00,,,0.00,meteobridge,2013-07-13 09:51:00,
2013-07-13 05:57:00,61.9,60.1,30.03,ENE,72,0.0,2.0,94,0.00,,,0.00,meteobridge,2013-07-13 09:57:00,
2013-07-13 06:02:00,61.9,60.1,30.03,ENE,72,0.0,0.9,94,0.00,,,0.00,meteobridge,2013-07-13 10:02:00,
2013-07-13 06:07:00,61.5,59.7,30.03,ENE,72,0.0,0.0,94,0.00,,,0.00,meteobridge,2013-07-13 10:07:00,
2013-07-13 06:12:00,61.5,59.7,30.03,ENE,72,0.0,0.0,94,0.00,,,0.00,meteobridge,2013-07-13 10:12:00,
2013-07-13 06:17:00,61.5,59.7,30.04,ENE,72,0.0,0.0,94,0.00,,,0.00,meteobridge,2013-07-13 10:17:00,
2013-07-13 06:22:00,61.3,59.9,30.04,ENE,71,0.0,0.0,95,0.00,,,0.00,meteobridge,2013-07-13 10:22:00,
2013-07-13 06:27:00,61.3,59.9,30.04,ENE,72,0.0,0.0,95,0.00,,,0.00,meteobridge,2013-07-13 10:27:00,
2013-07-13 06:32:00,61.3,59.9,30.04,ENE,72,0.0,0.0,95,0.00,,,0.00,meteobridge,2013-07-13 10:32:00,
2013-07-13 06:37:00,61.3,59.9,30.04,ENE,72,0.0,0.0,95,0.00,,,0.00,meteobridge,2013-07-13 10:37:00,
2013-07-13 06:42:00,61.3,59.9,30.04,ENE,72,0.0,0.0,95,0.00,,,0.00,meteobridge,2013-07-13 10:42:00,
2013-07-13 06:47:00,61.5,60.1,30.05,ENE,72,0.0,0.0,95,0.00,,,0.00,meteobridge,2013-07-13 10:47:00,
2013-07-13 06:52:00,61.5,60.1,30.05,ENE,72,0.0,2.0,95,0.00,,,0.00,meteobridge,2013-07-13 10:52:00,
2013-07-13 06:58:00,62.1,60.6,30.05,ENE,72,0.0,0.0,95,0.00,,,0.00,meteobridge,2013-07-13 10:58:00,
2013-07-13 07:03:00,62.2,60.8,30.05,ENE,72,0.0,0.0,95,0.00,,,0.00,meteobridge,2013-07-13 11:03:00,
2013-07-13 07:08:00,62.6,61.2,30.05,ENE,72,0.0,0.0,95,0.00,,,0.00,meteobridge,2013-07-13 11:08:00,
2013-07-13 07:13:00,63.1,61.3,30.05,ENE,72,0.0,2.0,94,0.00,,,0.00,meteobridge,2013-07-13 11:13:00,
2013-07-13 07:18:00,63.3,61.3,30.05,ENE,72,0.9,2.0,93,0.00,,,0.00,meteobridge,2013-07-13 11:18:00,
2013-07-13 07:24:00,63.3,60.6,30.05,ENE,72,0.0,0.0,91,0.00,,,0.00,meteobridge,2013-07-13 11:24:00,
2013-07-13 07:29:00,63.3,60.6,30.05,ENE,72,0.0,2.0,91,0.00,,,0.00,meteobridge,2013-07-13 11:29:00,
2013-07-13 07:34:00,63.5,60.8,30.06,ENE,72,0.0,0.0,91,0.00,,,0.00,meteobridge,2013-07-13 11:34:00,
2013-07-13 07:39:00,64.0,61.3,30.06,ENE,72,0.0,0.0,91,0.00,,,0.00,meteobridge,2013-07-13 11:39:00,
2013-07-13 07:44:00,64.2,61.0,30.06,ENE,73,2.0,2.0,89,0.00,,,0.00,meteobridge,2013-07-13 11:44:00,
2013-07-13 07:49:00,64.8,61.2,30.06,ENE,72,2.9,4.0,88,0.00,,,0.00,meteobridge,2013-07-13 11:49:00,
2013-07-13 07:54:00,64.8,61.2,30.06,NE,48,2.0,2.0,88,0.00,,,0.00,meteobridge,2013-07-13 11:54:00,
2013-07-13 07:59:00,65.5,61.5,30.07,NE,51,0.9,0.9,87,0.00,,,0.00,meteobridge,2013-07-13 11:59:00,
2013-07-13 08:04:00,65.7,61.3,30.07,ESE,120,2.0,2.9,86,0.00,,,0.00,meteobridge,2013-07-13 12:04:00,
2013-07-13 08:09:00,65.8,61.2,30.07,East,92,0.0,2.9,85,0.00,,,0.00,meteobridge,2013-07-13 12:09:00,
2013-07-13 08:14:00,66.0,61.0,30.08,East,92,0.9,2.9,84,0.00,,,0.00,meteobridge,2013-07-13 12:14:00,
2013-07-13 08:24:00,66.7,60.8,30.08,ESE,117,4.9,4.9,81,0.00,,,0.00,meteobridge,2013-07-13 12:24:00,
2013-07-13 08:30:00,67.1,61.3,30.08,ESE,104,0.9,2.0,82,0.00,,,0.00,meteobridge,2013-07-13 12:30:00,
2013-07-13 08:35:00,67.3,61.2,30.08,ESE,104,0.9,2.0,81,0.00,,,0.00,meteobridge,2013-07-13 12:35:00,
2013-07-13 08:40:00,67.6,61.5,30.08,ENE,64,2.9,2.9,81,0.00,,,0.00,meteobridge,2013-07-13 12:40:00,
2013-07-13 08:45:00,67.8,61.3,30.08,SSE,151,0.0,4.9,80,0.00,,,0.00,meteobridge,2013-07-13 12:45:00,
2013-07-13 08:50:00,68.2,61.7,30.08,East,85,4.9,4.9,80,0.00,,,0.00,meteobridge,2013-07-13 12:50:00,
2013-07-13 08:55:00,68.4,61.9,30.08,SE,143,0.9,2.9,80,0.00,,,0.00,meteobridge,2013-07-13 12:55:00,
2013-07-13 09:00:00,68.5,61.3,30.08,ESE,114,2.9,4.0,78,0.00,,,0.00,meteobridge,2013-07-13 13:00:00,
2013-07-13 09:05:00,68.5,61.7,30.08,SE,134,0.9,4.0,79,0.00,,,0.00,meteobridge,2013-07-13 13:05:00,
2013-07-13 09:10:00,68.9,61.7,30.08,ESE,123,0.9,0.9,78,0.00,,,0.00,meteobridge,2013-07-13 13:10:00,
2013-07-13 09:15:00,69.1,61.2,30.09,NNE,30,0.9,4.9,76,0.00,,,0.00,meteobridge,2013-07-13 13:15:00,
2013-07-13 09:20:00,69.4,62.2,30.09,East,92,2.9,2.9,78,0.00,,,0.00,meteobridge,2013-07-13 13:20:00,
2013-07-13 09:25:00,70.0,62.4,30.09,East,92,0.0,2.9,77,0.00,,,0.00,meteobridge,2013-07-13 13:25:00,
2013-07-13 09:30:00,70.0,62.1,30.09,East,93,0.9,2.0,76,0.00,,,0.00,meteobridge,2013-07-13 13:30:00,
2013-07-13 09:35:00,70.3,62.4,30.09,East,80,0.0,2.0,76,0.00,,,0.00,meteobridge,2013-07-13 13:35:00,
2013-07-13 09:41:00,71.1,62.8,30.09,East,82,0.0,0.0,75,0.00,,,0.00,meteobridge,2013-07-13 13:41:00,
2013-07-13 09:46:00,71.4,62.2,30.08,ENE,71,0.0,2.0,73,0.00,,,0.00,meteobridge,2013-07-13 13:46:00,
2013-07-13 09:51:00,72.1,63.0,30.08,ENE,71,0.9,2.9,73,0.00,,,0.00,meteobridge,2013-07-13 13:51:00,
2013-07-13 09:56:00,72.7,63.1,30.08,ENE,76,0.9,2.9,72,0.00,,,0.00,meteobridge,2013-07-13 13:56:00,
2013-07-13 10:02:00,72.9,63.3,30.08,East,79,0.9,2.0,72,0.00,,,0.00,meteobridge,2013-07-13 14:02:00,
2013-07-13 10:07:00,73.0,63.1,30.08,SSE,162,4.0,4.9,71,0.00,,,0.00,meteobridge,2013-07-13 14:07:00,
2013-07-13 10:12:00,72.9,63.3,30.08,NE,42,4.0,4.0,72,0.00,,,0.00,meteobridge,2013-07-13 14:12:00,
2013-07-13 10:17:00,73.2,63.3,30.08,East,86,2.9,4.0,71,0.00,,,0.00,meteobridge,2013-07-13 14:17:00,
2013-07-13 10:22:00,73.2,63.3,30.08,ESE,112,2.9,6.0,71,0.00,,,0.00,meteobridge,2013-07-13 14:22:00,
2013-07-13 10:27:00,73.6,63.7,30.08,ESE,123,0.0,0.9,71,0.00,,,0.00,meteobridge,2013-07-13 14:27:00,
2013-07-13 10:32:00,74.1,63.3,30.08,ESE,123,0.0,0.9,69,0.00,,,0.00,meteobridge,2013-07-13 14:32:00,
2013-07-13 10:37:00,74.7,64.2,30.08,East,85,2.0,2.9,70,0.00,,,0.00,meteobridge,2013-07-13 14:37:00,
2013-07-13 10:42:00,75.0,64.2,30.08,East,88,0.9,2.0,69,0.00,,,0.00,meteobridge,2013-07-13 14:42:00,
2013-07-13 10:47:00,75.0,63.7,30.09,NE,40,0.9,6.0,68,0.00,,,0.00,meteobridge,2013-07-13 14:47:00,
2013-07-13 10:52:00,75.0,64.2,30.09,NE,48,2.0,6.0,69,0.00,,,0.00,meteobridge,2013-07-13 14:52:00,
2013-07-13 10:57:00,75.4,64.0,30.09,NE,51,0.0,4.0,68,0.00,,,0.00,meteobridge,2013-07-13 14:57:00,
2013-07-13 11:02:00,75.6,63.9,30.09,SE,128,2.0,4.9,67,0.00,,,0.00,meteobridge,2013-07-13 15:02:00,
2013-07-13 11:07:00,75.7,64.4,30.09,ESE,112,0.9,2.9,68,0.00,,,0.00,meteobridge,2013-07-13 15:07:00,
2013-07-13 11:13:00,75.7,64.4,30.09,NNE,21,2.9,6.0,68,0.00,,,0.00,meteobridge,2013-07-13 15:13:00,
2013-07-13 11:18:00,75.7,64.8,30.09,ESE,121,4.9,6.0,69,0.00,,,0.00,meteobridge,2013-07-13 15:18:00,
2013-07-13 11:23:00,75.9,64.6,30.09,ESE,123,0.0,2.0,68,0.00,,,0.00,meteobridge,2013-07-13 15:23:00,
2013-07-13 11:28:00,76.3,64.6,30.09,ENE,64,0.9,2.9,67,0.00,,,0.00,meteobridge,2013-07-13 15:28:00,
2013-07-13 11:33:00,76.3,64.0,30.09,SE,126,0.9,6.0,66,0.00,,,0.00,meteobridge,2013-07-13 15:33:00,
2013-07-13 11:38:00,76.3,64.6,30.09,ESE,121,2.9,4.9,67,0.00,,,0.00,meteobridge,2013-07-13 15:38:00,
2013-07-13 11:43:00,76.6,65.3,30.09,SE,131,6.0,6.9,68,0.00,,,0.00,meteobridge,2013-07-13 15:43:00,
2013-07-13 11:48:00,76.5,64.8,30.08,South,182,0.9,6.0,67,0.00,,,0.00,meteobridge,2013-07-13 15:48:00,
2013-07-13 11:53:00,76.5,65.5,30.08,ESE,123,0.9,8.1,69,0.00,,,0.00,meteobridge,2013-07-13 15:53:00,
2013-07-13 11:58:00,77.2,65.8,30.08,ESE,117,2.0,6.0,68,0.00,,,0.00,meteobridge,2013-07-13 15:58:00,
2013-07-13 12:03:00,77.4,64.8,30.08,NNE,13,6.0,6.0,65,0.00,,,0.00,meteobridge,2013-07-13 16:03:00,
2013-07-13 12:08:00,77.5,65.3,30.08,North,8,2.0,6.0,66,0.00,,,0.00,meteobridge,2013-07-13 16:08:00,
2013-07-13 12:13:00,78.1,65.3,30.08,ENE,76,0.0,4.9,65,0.00,,,0.00,meteobridge,2013-07-13 16:13:00,
2013-07-13 12:18:00,77.9,66.0,30.08,ENE,75,0.0,2.9,67,0.00,,,0.00,meteobridge,2013-07-13 16:18:00,
2013-07-13 12:23:00,78.3,66.7,30.08,North,0,6.0,6.0,68,0.00,,,0.00,meteobridge,2013-07-13 16:23:00,
2013-07-13 12:28:00,79.0,66.2,30.08,SE,126,2.0,4.9,65,0.00,,,0.00,meteobridge,2013-07-13 16:28:00,
2013-07-13 12:34:00,79.3,65.7,30.08,ESE,103,2.9,2.9,63,0.00,,,0.00,meteobridge,2013-07-13 16:34:00,
2013-07-13 12:39:00,79.5,65.8,30.08,NE,48,4.9,6.9,63,0.00,,,0.00,meteobridge,2013-07-13 16:39:00,
2013-07-13 12:43:00,79.3,65.7,30.08,East,89,4.9,6.0,63,0.00,,,0.00,meteobridge,2013-07-13 16:43:00,
2013-07-13 12:49:00,79.5,66.7,30.08,East,90,0.9,6.0,65,0.00,,,0.00,meteobridge,2013-07-13 16:49:00,
2013-07-13 12:54:00,79.5,65.8,30.08,NNE,24,4.0,6.0,63,0.00,,,0.00,meteobridge,2013-07-13 16:54:00,
2013-07-13 12:59:00,79.9,65.7,30.08,ENE,62,0.9,6.0,62,0.00,,,0.00,meteobridge,2013-07-13 16:59:00,
2013-07-13 13:04:00,79.9,66.2,30.08,NE,37,2.9,6.9,63,0.00,,,0.00,meteobridge,2013-07-13 17:04:00,
2013-07-13 13:09:00,79.9,65.7,30.08,ENE,69,2.9,4.9,62,0.00,,,0.00,meteobridge,2013-07-13 17:09:00,
2013-07-13 13:14:00,79.3,65.7,30.08,East,82,2.0,4.9,63,0.00,,,0.00,meteobridge,2013-07-13 17:14:00,
2013-07-13 13:19:00,79.2,65.8,30.08,NNE,30,4.9,10.1,64,0.00,,,0.00,meteobridge,2013-07-13 17:19:00,
2013-07-13 13:24:00,79.3,66.6,30.08,SE,133,6.0,6.0,65,0.00,,,0.00,meteobridge,2013-07-13 17:24:00,
2013-07-13 13:29:00,79.9,67.1,30.08,SE,127,0.9,4.9,65,0.00,,,0.00,meteobridge,2013-07-13 17:29:00,
2013-07-13 13:34:00,80.1,65.8,30.08,ESE,116,0.0,6.9,62,0.00,,,0.00,meteobridge,2013-07-13 17:34:00,
2013-07-13 13:39:00,80.4,65.7,30.08,ESE,109,2.0,12.1,61,0.00,,,0.00,meteobridge,2013-07-13 17:39:00,
2013-07-13 13:44:00,80.8,66.9,30.08,ESE,120,2.0,2.9,63,0.00,,,0.00,meteobridge,2013-07-13 17:44:00,
2013-07-13 13:49:00,80.8,66.6,30.08,East,90,0.9,6.9,62,0.00,,,0.00,meteobridge,2013-07-13 17:49:00,
2013-07-13 13:54:00,81.3,65.7,30.08,East,92,0.0,0.0,59,0.00,,,0.00,meteobridge,2013-07-13 17:54:00,
2013-07-13 13:59:00,81.9,65.7,30.08,SE,124,4.9,6.0,58,0.00,,,0.00,meteobridge,2013-07-13 17:59:00,
2013-07-13 14:04:00,81.3,64.6,30.08,SSE,160,4.0,6.0,57,0.00,,,0.00,meteobridge,2013-07-13 18:04:00,
2013-07-13 14:09:00,81.1,64.9,30.08,South,182,2.0,8.1,58,0.00,,,0.00,meteobridge,2013-07-13 18:09:00,
2013-07-13 14:14:00,81.1,66.4,30.07,SE,137,2.0,4.0,61,0.00,,,0.00,meteobridge,2013-07-13 18:14:00,
2013-07-13 14:19:00,81.1,64.9,30.07,NNE,21,2.9,4.9,58,0.00,,,0.00,meteobridge,2013-07-13 18:19:00,
2013-07-13 14:25:00,81.7,66.0,30.07,ESE,117,0.0,2.9,59,0.00,,,0.00,meteobridge,2013-07-13 18:25:00,
2013-07-13 14:30:00,82.0,66.7,30.06,SSE,150,0.0,6.0,60,0.00,,,0.00,meteobridge,2013-07-13 18:30:00,
2013-07-13 14:35:00,82.4,65.7,30.06,East,82,2.0,6.0,57,0.00,,,0.00,meteobridge,2013-07-13 18:35:00,
2013-07-13 14:40:00,82.4,66.6,30.06,ENE,76,2.0,4.9,59,0.00,,,0.00,meteobridge,2013-07-13 18:40:00,
2013-07-13 14:45:00,82.2,65.5,30.06,East,88,0.0,2.9,57,0.00,,,0.00,meteobridge,2013-07-13 18:45:00,
2013-07-13 14:50:00,82.6,65.3,30.06,SE,131,0.9,6.0,56,0.00,,,0.00,meteobridge,2013-07-13 18:50:00,
2013-07-13 14:55:00,82.8,64.9,30.06,SE,137,0.9,4.9,55,0.00,,,0.00,meteobridge,2013-07-13 18:55:00,
2013-07-13 15:00:00,82.8,66.0,30.06,NNE,16,0.0,6.9,57,0.00,,,0.00,meteobridge,2013-07-13 19:00:00,
2013-07-13 15:05:00,82.9,65.7,30.06,North,8,6.9,6.9,56,0.00,,,0.00,meteobridge,2013-07-13 19:05:00,
2013-07-13 15:10:00,82.8,67.5,30.06,NNE,18,0.0,4.9,60,0.00,,,0.00,meteobridge,2013-07-13 19:10:00,
2013-07-13 15:15:00,82.8,65.5,30.06,SE,141,0.0,2.9,56,0.00,,,0.00,meteobridge,2013-07-13 19:15:00,
2013-07-13 15:20:00,83.1,67.3,30.06,SE,136,0.0,0.0,59,0.00,,,0.00,meteobridge,2013-07-13 19:20:00,
2013-07-13 15:25:00,83.1,66.4,30.06,NE,40,2.9,6.9,57,0.00,,,0.00,meteobridge,2013-07-13 19:25:00,
2013-07-13 15:30:00,83.1,66.4,30.06,NE,35,0.9,4.9,57,0.00,,,0.00,meteobridge,2013-07-13 19:30:00,
2013-07-13 15:35:00,83.5,66.6,30.06,NE,45,0.0,0.9,57,0.00,,,0.00,meteobridge,2013-07-13 19:35:00,
2013-07-13 15:41:00,83.8,66.4,30.06,NNE,23,2.0,8.1,56,0.00,,,0.00,meteobridge,2013-07-13 19:41:00,
2013-07-13 15:46:00,83.7,66.7,30.06,NE,42,0.0,0.9,57,0.00,,,0.00,meteobridge,2013-07-13 19:46:00,
2013-07-13 15:51:00,83.8,66.9,30.06,NE,38,0.9,4.9,57,0.00,,,0.00,meteobridge,2013-07-13 19:51:00,
2013-07-13 15:56:00,83.8,67.5,30.06,NE,34,0.0,2.9,58,0.00,,,0.00,meteobridge,2013-07-13 19:56:00,
2013-07-13 16:01:00,84.0,67.1,30.05,North,11,2.0,4.9,57,0.00,,,0.00,meteobridge,2013-07-13 20:01:00,
2013-07-13 16:06:00,83.1,66.7,30.05,ENE,59,2.0,6.9,58,0.00,,,0.00,meteobridge,2013-07-13 20:06:00,
2013-07-13 16:11:00,82.4,66.6,30.05,NE,48,2.9,2.9,59,0.00,,,0.00,meteobridge,2013-07-13 20:11:00,
2013-07-13 16:16:00,82.0,66.4,30.05,NE,48,2.0,4.0,59,0.00,,,0.00,meteobridge,2013-07-13 20:16:00,
2013-07-13 16:21:00,82.9,67.6,30.05,NE,48,0.0,2.9,60,0.00,,,0.00,meteobridge,2013-07-13 20:21:00,
2013-07-13 16:27:00,84.0,68.2,30.05,NE,48,0.9,2.9,59,0.00,,,0.00,meteobridge,2013-07-13 20:27:00,
2013-07-13 16:32:00,84.7,68.4,30.05,SE,134,0.9,0.9,58,0.00,,,0.00,meteobridge,2013-07-13 20:32:00,
2013-07-13 16:37:00,84.7,66.7,30.05,SSE,148,0.0,0.9,55,0.00,,,0.00,meteobridge,2013-07-13 20:37:00,
2013-07-13 16:42:00,84.7,67.3,30.05,NNE,27,2.0,2.9,56,0.00,,,0.00,meteobridge,2013-07-13 20:42:00,
2013-07-13 16:47:00,84.4,66.9,30.05,NE,51,6.9,6.9,56,0.00,,,0.00,meteobridge,2013-07-13 20:47:00,
2013-07-13 16:52:00,84.0,67.1,30.05,NNE,21,0.9,0.9,57,0.00,,,0.00,meteobridge,2013-07-13 20:52:00,
2013-07-13 16:57:00,84.0,66.6,30.05,NE,37,2.9,6.0,56,0.00,,,0.00,meteobridge,2013-07-13 20:57:00,
2013-07-13 17:02:00,84.4,67.5,30.05,NNE,25,2.9,4.9,57,0.00,,,0.00,meteobridge,2013-07-13 21:02:00,
2013-07-13 17:07:00,84.6,67.1,30.05,North,10,2.9,6.9,56,0.00,,,0.00,meteobridge,2013-07-13 21:07:00,
2013-07-13 17:12:00,84.6,67.1,30.05,NNE,30,2.9,2.9,56,0.00,,,0.00,meteobridge,2013-07-13 21:12:00,
2013-07-13 17:17:00,84.6,67.1,30.05,NNE,32,0.0,8.1,56,0.00,,,0.00,meteobridge,2013-07-13 21:17:00,
2013-07-13 17:22:00,84.7,67.3,30.05,NE,44,2.0,2.0,56,0.00,,,0.00,meteobridge,2013-07-13 21:22:00,
2013-07-13 17:27:00,84.9,68.0,30.05,East,97,2.9,2.9,57,0.00,,,0.00,meteobridge,2013-07-13 21:27:00,
2013-07-13 17:32:00,84.9,67.5,30.05,NNE,23,4.9,6.9,56,0.00,,,0.00,meteobridge,2013-07-13 21:32:00,
2013-07-13 17:37:00,85.1,67.1,30.05,ESE,123,0.0,0.0,55,0.00,,,0.00,meteobridge,2013-07-13 21:37:00,
2013-07-13 17:42:00,84.7,66.2,30.05,ENE,61,0.9,4.0,54,0.00,,,0.00,meteobridge,2013-07-13 21:42:00,
2013-07-13 17:47:00,84.7,65.7,30.05,NNE,30,4.0,6.0,53,0.00,,,0.00,meteobridge,2013-07-13 21:47:00,
2013-07-13 17:52:00,84.7,65.7,30.05,NNE,16,6.0,6.9,53,0.00,,,0.00,meteobridge,2013-07-13 21:52:00,
2013-07-13 17:57:00,84.7,66.2,30.05,ENE,58,0.0,2.9,54,0.00,,,0.00,meteobridge,2013-07-13 21:57:00,
2013-07-13 18:02:00,84.9,65.8,30.05,NE,34,2.0,6.9,53,0.00,,,0.00,meteobridge,2013-07-13 22:02:00,
2013-07-13 18:07:00,84.7,66.2,30.05,NNE,28,4.9,10.1,54,0.00,,,0.00,meteobridge,2013-07-13 22:07:00,
2013-07-13 18:12:00,84.7,65.7,30.05,ENE,64,0.0,6.0,53,0.00,,,0.00,meteobridge,2013-07-13 22:12:00,
2013-07-13 18:17:00,84.9,65.8,30.05,NE,34,2.0,4.9,53,0.00,,,0.00,meteobridge,2013-07-13 22:17:00,
2013-07-13 18:22:00,84.6,64.9,30.05,NNE,25,2.9,6.0,52,0.00,,,0.00,meteobridge,2013-07-13 22:22:00,
2013-07-13 18:27:00,84.7,65.7,30.05,ENE,76,2.9,6.9,53,0.00,,,0.00,meteobridge,2013-07-13 22:27:00,
2013-07-13 18:37:00,84.9,65.8,30.04,East,86,0.0,6.0,53,0.00,,,0.00,meteobridge,2013-07-13 22:37:00,
2013-07-13 18:42:00,84.9,65.8,30.04,ESE,106,2.9,6.9,53,0.00,,,0.00,meteobridge,2013-07-13 22:42:00,
2013-07-13 18:47:00,84.7,65.1,30.05,East,97,0.0,6.9,52,0.00,,,0.00,meteobridge,2013-07-13 22:47:00,
2013-07-13 18:52:00,84.6,65.5,30.05,East,99,0.9,4.9,53,0.00,,,0.00,meteobridge,2013-07-13 22:52:00,
2013-07-13 18:57:00,84.6,64.9,30.05,NE,34,0.9,6.0,52,0.00,,,0.00,meteobridge,2013-07-13 22:57:00,
2013-07-13 19:02:00,84.4,64.8,30.04,NE,40,4.9,11.0,52,0.00,,,0.00,meteobridge,2013-07-13 23:02:00,
2013-07-13 19:07:00,84.0,65.7,30.04,NNE,27,0.9,2.9,54,0.00,,,0.00,meteobridge,2013-07-13 23:07:00,
2013-07-13 19:12:00,84.4,65.3,30.04,NE,44,0.9,4.9,53,0.00,,,0.00,meteobridge,2013-07-13 23:12:00,
2013-07-13 19:17:00,84.4,65.8,30.04,NE,41,0.0,2.9,54,0.00,,,0.00,meteobridge,2013-07-13 23:17:00,
2013-07-13 19:23:00,84.4,66.4,30.04,NE,37,4.0,4.9,55,0.00,,,0.00,meteobridge,2013-07-13 23:23:00,
2013-07-13 19:28:00,84.0,66.2,30.04,NNE,23,0.9,0.9,55,0.00,,,0.00,meteobridge,2013-07-13 23:28:00,
2013-07-13 19:33:00,83.8,66.4,30.05,NE,42,0.0,6.0,56,0.00,,,0.00,meteobridge,2013-07-13 23:33:00,
2013-07-13 19:38:00,83.5,66.2,30.05,ENE,65,4.0,8.1,56,0.00,,,0.00,meteobridge,2013-07-13 23:38:00,
2013-07-13 19:43:00,83.1,66.4,30.05,ENE,64,2.0,2.0,57,0.00,,,0.00,meteobridge,2013-07-13 23:43:00,
2013-07-13 19:48:00,82.9,66.6,30.06,North,11,4.0,6.0,58,0.00,,,0.00,meteobridge,2013-07-13 23:48:00,
2013-07-13 19:53:00,82.8,66.6,30.06,NNE,28,0.0,6.0,58,0.00,,,0.00,meteobridge,2013-07-13 23:53:00,
2013-07-13 19:58:00,82.6,66.7,30.06,NE,38,0.0,4.9,59,0.00,,,0.00,meteobridge,2013-07-13 23:58:00,
2013-07-13 20:03:00,82.4,66.6,30.06,NE,37,2.0,4.0,59,0.00,,,0.00,meteobridge,2013-07-14 00:03:00,
2013-07-13 20:08:00,82.2,66.9,30.06,NNE,32,2.9,2.9,60,0.00,,,0.00,meteobridge,2013-07-14 00:08:00,
2013-07-13 20:13:00,82.0,66.7,30.06,NNE,30,0.9,6.0,60,0.00,,,0.00,meteobridge,2013-07-14 00:13:00,
2013-07-13 20:18:00,81.9,66.6,30.06,NE,37,2.0,4.0,60,0.00,,,0.00,meteobridge,2013-07-14 00:18:00,
2013-07-13 20:23:00,81.9,67.1,30.06,NNE,16,2.0,2.9,61,0.00,,,0.00,meteobridge,2013-07-14 00:23:00,
2013-07-13 20:28:00,81.7,66.9,30.06,NNE,27,0.9,2.0,61,0.00,,,0.00,meteobridge,2013-07-14 00:28:00,
2013-07-13 20:33:00,81.3,66.6,30.06,NNE,30,2.0,2.9,61,0.00,,,0.00,meteobridge,2013-07-14 00:33:00,
2013-07-13 20:38:00,81.3,67.1,30.06,NE,35,0.0,0.0,62,0.00,,,0.00,meteobridge,2013-07-14 00:38:00,
2013-07-13 20:44:00,81.1,66.9,30.06,NE,54,2.9,2.9,62,0.00,,,0.00,meteobridge,2013-07-14 00:44:00,
2013-07-13 20:49:00,81.0,66.7,30.07,NE,55,0.0,0.9,62,0.00,,,0.00,meteobridge,2013-07-14 00:49:00,
2013-07-13 20:54:00,80.8,66.9,30.07,NE,55,0.0,0.9,63,0.00,,,0.00,meteobridge,2013-07-14 00:54:00,
2013-07-13 21:00:00,80.4,67.1,30.06,ENE,61,0.0,2.9,64,0.00,,,0.00,meteobridge,2013-07-14 01:00:00,
2013-07-13 21:05:00,80.1,66.7,30.06,ENE,62,0.9,0.9,64,0.00,,,0.00,meteobridge,2013-07-14 01:05:00,
2013-07-13 21:10:00,79.9,67.1,30.06,ENE,62,0.0,0.9,65,0.00,,,0.00,meteobridge,2013-07-14 01:10:00,
2013-07-13 21:15:00,79.5,66.7,30.07,ENE,62,0.0,0.0,65,0.00,,,0.00,meteobridge,2013-07-14 01:15:00,
2013-07-13 21:20:00,79.3,66.9,30.07,ENE,62,0.9,2.0,66,0.00,,,0.00,meteobridge,2013-07-14 01:20:00,
2013-07-13 21:25:00,79.2,66.7,30.07,ENE,62,0.9,0.9,66,0.00,,,0.00,meteobridge,2013-07-14 01:25:00,
2013-07-13 21:30:00,79.0,67.1,30.07,ENE,62,0.0,0.9,67,0.00,,,0.00,meteobridge,2013-07-14 01:30:00,
2013-07-13 21:36:00,78.8,66.9,30.07,ENE,62,0.0,0.9,67,0.00,,,0.00,meteobridge,2013-07-14 01:36:00,
2013-07-13 21:41:00,78.6,67.1,30.07,ENE,62,0.0,0.0,68,0.00,,,0.00,meteobridge,2013-07-14 01:41:00,
2013-07-13 21:46:00,78.4,66.9,30.08,ENE,62,0.0,0.0,68,0.00,,,0.00,meteobridge,2013-07-14 01:46:00,
2013-07-13 21:52:00,78.3,67.3,30.08,ENE,62,0.0,0.0,69,0.00,,,0.00,meteobridge,2013-07-14 01:52:00,
2013-07-13 21:57:00,78.1,67.1,30.08,ENE,62,0.0,0.0,69,0.00,,,0.00,meteobridge,2013-07-14 01:57:00,
2013-07-13 22:02:00,77.9,66.9,30.09,ENE,62,0.0,2.9,69,0.00,,,0.00,meteobridge,2013-07-14 02:02:00,
2013-07-13 22:07:00,77.7,66.7,30.09,ENE,62,0.0,2.9,69,0.00,,,0.00,meteobridge,2013-07-14 02:07:00,
2013-07-13 22:12:00,77.5,66.9,30.09,ENE,62,0.0,0.0,70,0.00,,,0.00,meteobridge,2013-07-14 02:12:00,
2013-07-13 22:17:00,77.4,66.7,30.09,ENE,62,0.9,2.9,70,0.00,,,0.00,meteobridge,2013-07-14 02:17:00,
2013-07-13 22:22:00,77.2,66.6,30.09,ENE,62,0.0,0.0,70,0.00,,,0.00,meteobridge,2013-07-14 02:22:00,
2013-07-13 22:27:00,77.2,67.1,30.09,ENE,62,0.0,0.0,71,0.00,,,0.00,meteobridge,2013-07-14 02:27:00,
2013-07-13 22:32:00,77.0,66.9,30.10,ENE,62,0.0,0.9,71,0.00,,,0.00,meteobridge,2013-07-14 02:32:00,
2013-07-13 22:37:00,76.6,67.3,30.10,ENE,62,0.0,0.0,73,0.00,,,0.00,meteobridge,2013-07-14 02:37:00,
2013-07-13 22:42:00,76.3,67.5,30.10,ENE,62,0.0,0.0,74,0.00,,,0.00,meteobridge,2013-07-14 02:42:00,
2013-07-13 22:47:00,76.1,67.3,30.11,ENE,64,0.0,0.0,74,0.00,,,0.00,meteobridge,2013-07-14 02:47:00,
2013-07-13 22:53:00,75.7,67.6,30.11,ENE,64,0.0,0.0,76,0.00,,,0.00,meteobridge,2013-07-14 02:53:00,
2013-07-13 22:58:00,75.4,67.6,30.11,ENE,64,0.0,0.0,77,0.00,,,0.00,meteobridge,2013-07-14 02:58:00,
2013-07-13 23:03:00,74.8,67.1,30.10,ENE,64,0.0,0.0,77,0.00,,,0.00,meteobridge,2013-07-14 03:03:00,
2013-07-13 23:08:00,74.7,66.9,30.10,ENE,64,0.0,0.0,77,0.00,,,0.00,meteobridge,2013-07-14 03:08:00,
2013-07-13 23:13:00,74.7,66.6,30.10,ENE,64,0.0,0.0,76,0.00,,,0.00,meteobridge,2013-07-14 03:13:00,
2013-07-13 23:18:00,74.7,66.9,30.10,ENE,64,0.0,0.0,77,0.00,,,0.00,meteobridge,2013-07-14 03:18:00,
2013-07-13 23:24:00,74.7,67.3,30.10,ENE,64,0.0,0.0,78,0.00,,,0.00,meteobridge,2013-07-14 03:24:00,
2013-07-13 23:29:00,74.5,66.4,30.10,ENE,64,0.0,0.0,76,0.00,,,0.00,meteobridge,2013-07-14 03:29:00,
2013-07-13 23:34:00,74.7,66.9,30.10,ENE,64,0.0,0.0,77,0.00,,,0.00,meteobridge,2013-07-14 03:34:00,
2013-07-13 23:39:00,74.7,66.6,30.10,ENE,64,0.0,0.0,76,0.00,,,0.00,meteobridge,2013-07-14 03:39:00,
2013-07-13 23:44:00,74.7,66.6,30.10,ENE,64,0.0,0.0,76,0.00,,,0.00,meteobridge,2013-07-14 03:44:00,
2013-07-13 23:49:00,74.7,66.6,30.10,ENE,64,0.0,0.0,76,0.00,,,0.00,meteobridge,2013-07-14 03:49:00,
2013-07-13 23:55:00,74.7,66.2,30.10,ENE,64,0.0,0.0,75,0.00,,,0.00,meteobridge,2013-07-14 03:55:00,